createdAt,value
2022-12-25T00:02:25.589Z,99293.94
2022-12-25T00:04:52.602Z,99284.78
2022-12-25T00:07:19.463Z,99292.88
2022-12-25T00:09:46.276Z,99292.88
2022-12-25T00:12:13.231Z,99295.28
2022-12-25T00:14:40.087Z,99285.03
2022-12-25T00:17:06.915Z,99289.34
2022-12-25T00:19:33.828Z,99298.75
2022-12-25T00:22:00.667Z,99313.88
2022-12-25T00:24:27.544Z,99310.84
2022-12-25T00:26:54.409Z,99310.06
2022-12-25T00:29:22.073Z,99301.47
2022-12-25T00:31:48.980Z,99312.75
2022-12-25T00:34:15.944Z,99278.00
2022-12-25T00:36:42.781Z,99327.06
2022-12-25T00:39:09.842Z,99328.69
2022-12-25T00:41:55.363Z,99342.31
2022-12-25T00:44:22.204Z,99343.63
2022-12-25T00:46:49.290Z,99333.91
2022-12-25T00:49:16.210Z,99341.31
2022-12-25T00:51:43.133Z,99338.88
2022-12-25T00:54:09.971Z,99313.78
2022-12-25T00:56:36.911Z,99363.38
2022-12-25T00:59:03.786Z,99324.56
2022-12-25T01:01:30.891Z,99364.47
2022-12-25T01:03:57.990Z,99367.41
2022-12-25T01:06:24.841Z,99374.69
2022-12-25T01:09:10.638Z,99370.81
2022-12-25T01:11:37.524Z,99362.16
2022-12-25T01:14:04.454Z,99360.78
2022-12-25T01:16:31.408Z,99362.50
2022-12-25T01:18:58.345Z,99368.06
2022-12-25T01:21:25.224Z,99349.97
2022-12-25T01:23:52.546Z,99357.78
2022-12-25T01:26:20.330Z,99354.25
2022-12-25T01:28:47.221Z,99365.59
2022-12-25T01:31:15.217Z,99363.66
2022-12-25T01:33:42.428Z,99372.81
2022-12-25T01:36:24.431Z,99361.22
2022-12-25T01:38:51.935Z,99397.06
2022-12-25T01:41:20.044Z,99358.94
2022-12-25T01:43:59.583Z,99411.56
2022-12-25T01:46:26.541Z,99413.22
2022-12-25T01:48:54.142Z,99410.53
2022-12-25T01:51:30.836Z,99411.31
2022-12-25T01:53:58.523Z,99396.50
2022-12-25T01:56:25.424Z,99395.94
2022-12-25T01:58:52.267Z,99396.75
2022-12-25T02:01:19.309Z,99391.38
2022-12-25T02:03:46.228Z,99393.25
2022-12-25T02:06:13.085Z,99402.69
2022-12-25T02:08:40.544Z,99403.22
2022-12-25T02:11:28.959Z,99399.97
2022-12-25T02:13:55.992Z,99401.56
2022-12-25T02:16:23.111Z,99412.09
2022-12-25T02:18:52.743Z,99407.19
2022-12-25T02:21:52.230Z,99413.41
2022-12-25T02:24:22.086Z,99404.22
2022-12-25T02:27:40.705Z,99397.75
2022-12-25T02:30:08.872Z,99396.63
2022-12-25T02:33:25.761Z,99394.44
2022-12-25T02:35:53.447Z,99387.16
2022-12-25T02:38:33.148Z,99382.31
2022-12-25T02:41:02.474Z,99361.72
2022-12-25T02:43:57.597Z,99407.59
2022-12-25T02:46:43.117Z,99417.78
2022-12-25T02:49:35.715Z,99415.34
2022-12-25T02:52:24.089Z,99387.47
2022-12-25T02:55:12.995Z,99372.84
2022-12-25T02:58:04.396Z,99403.19
2022-12-25T03:00:50.864Z,99397.00
2022-12-25T03:03:36.142Z,99404.50
2022-12-25T03:06:21.635Z,99405.03
2022-12-25T03:08:50.431Z,99406.41
2022-12-25T03:11:32.509Z,99401.78
2022-12-25T03:14:20.798Z,99402.56
2022-12-25T03:16:53.730Z,99404.22
2022-12-25T03:19:40.740Z,99407.44
2022-12-25T03:22:28.742Z,99414.94
2022-12-25T03:25:14.112Z,99414.13
2022-12-25T03:27:42.492Z,99413.81
2022-12-25T03:30:29.151Z,99410.31
2022-12-25T03:33:36.810Z,99408.44
2022-12-25T03:36:10.123Z,99422.38
2022-12-25T03:38:51.967Z,99429.88
2022-12-25T03:41:40.215Z,99430.38
2022-12-25T03:44:39.705Z,99381.47
2022-12-25T03:47:39.108Z,99434.31
2022-12-25T03:50:49.241Z,99433.53
2022-12-25T03:53:37.727Z,99433.16
2022-12-25T03:56:24.205Z,99442.91
2022-12-25T03:59:11.154Z,99438.59
2022-12-25T04:01:56.781Z,99449.34
2022-12-25T04:04:42.550Z,99456.84
2022-12-25T04:07:28.094Z,99451.72
2022-12-25T04:10:13.453Z,99460.34
2022-12-25T04:12:58.900Z,99462.50
2022-12-25T04:15:44.299Z,99459.97
2022-12-25T04:18:30.186Z,99463.00
2022-12-25T04:21:15.700Z,99473.16
2022-12-25T04:24:01.142Z,99465.34
2022-12-25T04:26:46.551Z,99461.28
2022-12-25T04:29:31.820Z,99465.03
2022-12-25T04:32:16.959Z,99463.66
2022-12-25T04:35:02.832Z,99467.06
2022-12-25T04:37:29.775Z,99469.47
2022-12-25T04:39:56.633Z,99458.13
2022-12-25T04:42:23.466Z,99478.88
2022-12-25T04:44:50.321Z,99471.31
2022-12-25T04:47:17.155Z,99465.69
2022-12-25T04:49:43.982Z,99477.47
2022-12-25T04:52:10.851Z,99479.72
2022-12-25T04:54:38.273Z,99494.53
2022-12-25T04:57:05.308Z,99486.41
2022-12-25T04:59:32.178Z,99495.28
2022-12-25T05:01:59.152Z,99464.94
2022-12-25T05:04:26.042Z,99504.59
2022-12-25T05:06:52.970Z,99501.59
2022-12-25T05:09:19.802Z,99503.00
2022-12-25T05:11:46.656Z,99497.22
2022-12-25T05:14:13.565Z,99488.94
2022-12-25T05:16:40.579Z,99490.25
2022-12-25T05:19:07.417Z,99488.63
2022-12-25T05:21:34.304Z,99489.38
2022-12-25T05:24:01.127Z,99497.69
2022-12-25T05:26:27.956Z,99496.31
2022-12-25T05:28:55.239Z,99496.31
2022-12-25T05:31:22.188Z,99450.59
2022-12-25T05:33:50.254Z,99462.88
2022-12-25T05:36:17.136Z,99422.53
2022-12-25T05:38:43.974Z,99482.06
2022-12-25T05:41:10.931Z,99483.69
2022-12-25T05:43:37.806Z,99493.06
2022-12-25T05:46:06.490Z,99495.47
2022-12-25T05:48:34.708Z,99475.38
2022-12-25T05:51:09.439Z,99507.78
2022-12-25T05:53:36.446Z,99507.72
2022-12-25T05:56:04.409Z,99520.81
2022-12-25T05:58:32.054Z,99516.84
2022-12-25T06:00:58.901Z,99524.72
2022-12-25T06:03:25.813Z,99528.47
2022-12-25T06:05:52.751Z,99529.56
2022-12-25T06:08:19.761Z,99528.97
2022-12-25T06:10:46.857Z,99533.78
2022-12-25T06:13:13.784Z,99540.69
2022-12-25T06:15:41.303Z,99510.56
2022-12-25T06:18:08.344Z,99534.75
2022-12-25T06:20:35.417Z,99503.06
2022-12-25T06:23:02.389Z,99532.81
2022-12-25T06:25:29.243Z,99531.09
2022-12-25T06:27:56.105Z,99535.34
2022-12-25T06:30:22.991Z,99545.75
2022-12-25T06:32:49.836Z,99550.88
2022-12-25T06:35:16.796Z,99549.59
2022-12-25T06:37:43.610Z,99552.50
2022-12-25T06:40:10.837Z,99557.84
2022-12-25T06:42:37.712Z,99560.66
2022-12-25T06:45:04.976Z,99558.72
2022-12-25T06:47:31.843Z,99553.81
2022-12-25T06:49:58.704Z,99566.41
2022-12-25T06:52:25.526Z,99567.97
2022-12-25T06:54:52.370Z,99583.72
2022-12-25T06:57:19.366Z,99582.56
2022-12-25T06:59:49.917Z,99588.19
2022-12-25T07:02:22.387Z,99578.41
2022-12-25T07:04:49.287Z,99591.56
2022-12-25T07:07:16.101Z,99592.03
2022-12-25T07:09:43.001Z,99592.28
2022-12-25T07:12:19.698Z,99598.94
2022-12-25T07:14:49.045Z,99603.97
2022-12-25T07:17:16.802Z,99603.13
2022-12-25T07:19:45.444Z,99579.09
2022-12-25T07:22:13.207Z,99584.34
2022-12-25T07:24:40.050Z,99620.63
2022-12-25T07:27:06.919Z,99621.91
2022-12-25T07:29:34.001Z,99597.41
2022-12-25T07:32:00.925Z,99614.81
2022-12-25T07:34:27.793Z,99618.81
2022-12-25T07:36:54.972Z,99596.13
2022-12-25T07:39:22.064Z,99623.00
2022-12-25T07:41:48.945Z,99625.34
2022-12-25T07:44:16.007Z,99629.31
2022-12-25T07:46:43.035Z,99632.19
2022-12-25T07:49:11.034Z,99631.47
2022-12-25T07:51:37.965Z,99626.84
2022-12-25T07:54:04.929Z,99625.06
2022-12-25T07:56:31.875Z,99596.47
2022-12-25T07:58:58.752Z,99637.66
2022-12-25T08:01:26.984Z,99631.75
2022-12-25T08:03:54.894Z,99645.34
2022-12-25T08:06:22.741Z,99610.69
2022-12-25T08:08:49.570Z,99638.97
2022-12-25T08:11:16.385Z,99631.28
2022-12-25T08:13:43.255Z,99638.25
2022-12-25T08:16:10.510Z,99607.88
2022-12-25T08:18:38.146Z,99631.06
2022-12-25T08:21:09.561Z,99604.16
2022-12-25T08:23:38.229Z,99630.72
2022-12-25T08:26:05.931Z,99634.91
2022-12-25T08:28:33.240Z,99605.34
2022-12-25T08:31:00.149Z,99612.91
2022-12-25T08:33:27.017Z,99638.03
2022-12-25T08:35:53.981Z,99631.16
2022-12-25T08:38:20.875Z,99630.81
2022-12-25T08:40:47.704Z,99644.44
2022-12-25T08:43:14.552Z,99653.28
2022-12-25T08:45:41.398Z,99665.06
2022-12-25T08:48:08.255Z,99656.66
2022-12-25T08:50:35.133Z,99648.84
2022-12-25T08:53:02.137Z,99643.16
2022-12-25T08:55:29.473Z,99643.16
2022-12-25T08:57:56.425Z,99652.00
2022-12-25T09:00:23.279Z,99657.81
2022-12-25T09:02:50.521Z,99660.28
2022-12-25T09:05:17.455Z,99659.56
2022-12-25T09:07:44.553Z,99623.13
2022-12-25T09:10:11.604Z,99648.53
2022-12-25T09:12:38.491Z,99609.75
2022-12-25T09:15:05.809Z,99647.84
2022-12-25T09:17:33.067Z,99645.63
2022-12-25T09:20:00.057Z,99643.03
2022-12-25T09:22:26.932Z,99650.28
2022-12-25T09:24:53.850Z,99652.94
2022-12-25T09:27:20.762Z,99620.00
2022-12-25T09:29:47.657Z,99663.06
2022-12-25T09:32:14.505Z,99667.59
2022-12-25T09:34:41.392Z,99670.50
2022-12-25T09:37:08.270Z,99662.47
2022-12-25T09:39:38.191Z,99669.09
2022-12-25T09:42:13.402Z,99671.03
2022-12-25T09:44:45.334Z,99669.53
2022-12-25T09:47:18.434Z,99647.88
2022-12-25T09:49:50.405Z,99677.31
2022-12-25T09:52:19.922Z,99672.28
2022-12-25T09:55:08.272Z,99673.19
2022-12-25T09:57:35.231Z,99673.56
2022-12-25T10:00:02.136Z,99668.75
2022-12-25T10:02:50.397Z,99679.19
2022-12-25T10:05:40.171Z,99644.38
2022-12-25T10:08:13.041Z,99683.13
2022-12-25T10:10:52.805Z,99680.28
2022-12-25T10:13:47.058Z,99679.09
2022-12-25T10:16:44.511Z,99678.69
2022-12-25T10:19:41.231Z,99672.38
2022-12-25T10:22:14.712Z,99678.41
2022-12-25T10:24:48.138Z,99682.88
2022-12-25T10:27:18.997Z,99670.59
2022-12-25T10:29:47.381Z,99666.22
2022-12-25T10:32:14.223Z,99674.41
2022-12-25T10:34:41.755Z,99667.75
2022-12-25T10:37:10.924Z,99637.00
2022-12-25T10:39:42.441Z,99659.19
2022-12-25T10:42:24.449Z,99662.25
2022-12-25T10:45:04.843Z,99655.09
2022-12-25T10:47:33.375Z,99644.72
2022-12-25T10:50:00.747Z,99646.09
2022-12-25T10:52:28.666Z,99617.50
2022-12-25T10:54:55.785Z,99644.47
2022-12-25T10:57:24.344Z,99594.72
2022-12-25T10:59:57.250Z,99627.31
2022-12-25T11:02:44.465Z,99631.25
2022-12-25T11:05:14.376Z,99623.56
2022-12-25T11:07:55.266Z,99617.41
2022-12-25T11:10:28.499Z,99586.66
2022-12-25T11:12:55.580Z,99619.25
2022-12-25T11:15:34.959Z,99607.22
2022-12-25T11:18:02.727Z,99612.94
2022-12-25T11:20:29.837Z,99609.00
2022-12-25T11:22:56.819Z,99600.41
2022-12-25T11:25:27.507Z,99602.94
2022-12-25T11:28:02.096Z,99598.41
2022-12-25T11:30:29.726Z,99588.19
2022-12-25T11:32:57.153Z,99562.81
2022-12-25T11:35:25.335Z,99591.59
2022-12-25T11:37:52.336Z,99591.88
2022-12-25T11:40:33.539Z,99554.09
2022-12-25T11:43:08.416Z,99523.09
2022-12-25T11:45:40.338Z,99573.44
2022-12-25T11:48:24.435Z,99573.19
2022-12-25T11:50:55.573Z,99521.34
2022-12-25T11:53:25.790Z,99563.00
2022-12-25T11:55:55.615Z,99570.31
2022-12-25T11:58:29.419Z,99539.84
2022-12-25T12:00:57.436Z,99547.50
2022-12-25T12:03:38.171Z,99568.06
2022-12-25T12:06:18.906Z,99571.84
2022-12-25T12:08:47.759Z,99539.44
2022-12-25T12:11:37.323Z,99573.22
2022-12-25T12:14:20.851Z,99578.63
2022-12-25T12:16:47.819Z,99545.41
2022-12-25T12:19:28.783Z,99583.22
2022-12-25T12:21:56.841Z,99571.91
2022-12-25T12:24:23.954Z,99566.75
2022-12-25T12:27:05.128Z,99549.22
2022-12-25T12:29:40.071Z,99526.00
2022-12-25T12:32:20.810Z,99551.91
2022-12-25T12:34:50.075Z,99550.03
2022-12-25T12:37:35.940Z,99555.69
2022-12-25T12:40:03.656Z,99560.53
2022-12-25T12:42:36.256Z,99496.81
2022-12-25T12:45:15.153Z,99569.72
2022-12-25T12:47:46.654Z,99571.63
2022-12-25T12:50:40.833Z,99570.78
2022-12-25T12:53:22.649Z,99578.91
2022-12-25T12:55:50.199Z,99570.25
2022-12-25T12:58:33.209Z,99558.88
2022-12-25T13:01:09.203Z,99569.16
2022-12-25T13:04:13.482Z,99570.22
2022-12-25T13:06:51.149Z,99585.34
2022-12-25T13:09:33.167Z,99580.25
2022-12-25T13:12:00.139Z,99585.06
2022-12-25T13:14:27.328Z,99584.81
2022-12-25T13:16:54.742Z,99582.59
2022-12-25T13:19:24.098Z,99590.41
2022-12-25T13:21:58.941Z,99601.50
2022-12-25T13:24:29.184Z,99595.53
2022-12-25T13:26:56.088Z,99590.94
2022-12-25T13:29:36.708Z,99574.44
2022-12-25T13:32:05.313Z,99572.03
2022-12-25T13:34:39.708Z,99566.88
2022-12-25T13:37:27.692Z,99555.28
2022-12-25T13:40:01.873Z,99573.34
2022-12-25T13:42:30.721Z,99571.16
2022-12-25T13:45:28.779Z,99538.25
2022-12-25T13:47:56.181Z,99574.69
2022-12-25T13:50:33.713Z,99543.63
2022-12-25T13:53:14.112Z,99527.94
2022-12-25T13:55:40.976Z,99554.38
2022-12-25T13:58:07.930Z,99554.38
2022-12-25T14:00:37.752Z,99562.50
2022-12-25T14:03:05.350Z,99554.06
2022-12-25T14:05:41.699Z,99553.84
2022-12-25T14:08:23.111Z,99515.00
2022-12-25T14:10:51.231Z,99547.06
2022-12-25T14:13:18.576Z,99536.00
2022-12-25T14:15:45.563Z,99534.06
2022-12-25T14:18:19.151Z,99527.84
2022-12-25T14:20:59.195Z,99534.63
2022-12-25T14:23:26.075Z,99543.31
2022-12-25T14:25:53.051Z,99529.56
2022-12-25T14:28:23.818Z,99518.09
2022-12-25T14:30:50.924Z,99522.38
2022-12-25T14:33:19.721Z,99507.25
2022-12-25T14:35:46.736Z,99499.69
2022-12-25T14:38:32.407Z,99475.72
2022-12-25T14:41:24.257Z,99497.41
2022-12-25T14:43:53.810Z,99550.38
2022-12-25T14:46:28.950Z,99540.38
2022-12-25T14:49:05.243Z,99537.13
2022-12-25T14:51:33.011Z,99456.13
2022-12-25T14:54:01.945Z,99515.00
2022-12-25T14:56:29.321Z,99516.59
2022-12-25T14:58:57.461Z,99502.28
2022-12-25T15:01:35.078Z,99478.28
2022-12-25T15:04:28.395Z,99489.63
2022-12-25T15:07:07.378Z,99493.94
2022-12-25T15:09:36.029Z,99446.00
2022-12-25T15:12:03.173Z,99518.56
2022-12-25T15:14:31.554Z,99508.06
2022-12-25T15:16:59.461Z,99492.91
2022-12-25T15:19:34.843Z,99481.56
2022-12-25T15:22:03.843Z,99483.47
2022-12-25T15:24:30.711Z,99483.78
2022-12-25T15:27:00.302Z,99497.28
2022-12-25T15:30:00.265Z,99497.03
2022-12-25T15:32:19.106Z,99485.97
2022-12-25T15:34:47.248Z,99466.81
2022-12-25T15:37:14.330Z,99488.13
2022-12-25T15:39:41.280Z,99479.75
2022-12-25T15:42:16.242Z,99445.50
2022-12-25T15:44:43.889Z,99446.84
2022-12-25T15:47:11.569Z,99468.72
2022-12-25T15:49:38.489Z,99470.34
2022-12-25T15:52:06.264Z,99470.06
2022-12-25T15:54:33.221Z,99483.31
2022-12-25T15:57:02.142Z,99484.16
2022-12-25T15:59:29.072Z,99479.53
2022-12-25T16:01:57.591Z,99485.50
2022-12-25T16:04:25.089Z,99485.22
2022-12-25T16:06:52.290Z,99477.66
2022-12-25T16:09:20.317Z,99482.81
2022-12-25T16:11:47.363Z,99464.97
2022-12-25T16:14:14.604Z,99477.13
2022-12-25T16:16:41.564Z,99482.28
2022-12-25T16:19:08.583Z,99448.78
2022-12-25T16:21:39.905Z,99471.22
2022-12-25T16:24:06.911Z,99469.31
2022-12-25T16:26:34.039Z,99462.00
2022-12-25T16:29:06.796Z,99457.44
2022-12-25T16:31:34.643Z,99452.81
2022-12-25T16:34:01.728Z,99428.53
2022-12-25T16:36:28.586Z,99454.72
2022-12-25T16:38:55.514Z,99460.09
2022-12-25T16:41:22.491Z,99452.00
2022-12-25T16:43:49.408Z,99451.72
2022-12-25T16:46:17.828Z,99453.34
2022-12-25T16:48:44.911Z,99451.44
2022-12-25T16:51:16.208Z,99445.75
2022-12-25T16:53:43.488Z,99435.50
2022-12-25T16:56:14.942Z,99413.38
2022-12-25T16:58:46.656Z,99424.97
2022-12-25T17:01:15.244Z,99380.75
2022-12-25T17:03:42.252Z,99416.88
2022-12-25T17:06:15.704Z,99424.44
2022-12-25T17:08:42.874Z,99417.94
2022-12-25T17:11:10.148Z,99388.53
2022-12-25T17:13:37.186Z,99413.66
2022-12-25T17:16:17.770Z,99408.50
2022-12-25T17:18:44.773Z,99411.22
2022-12-25T17:21:11.658Z,99409.31
2022-12-25T17:23:38.634Z,99394.47
2022-12-25T17:26:05.723Z,99390.94
2022-12-25T17:28:34.115Z,99389.88
2022-12-25T17:31:05.572Z,99380.66
2022-12-25T17:33:32.440Z,99409.00
2022-12-25T17:36:07.154Z,99391.16
2022-12-25T17:38:34.031Z,99421.34
2022-12-25T17:41:02.257Z,99429.13
2022-12-25T17:43:29.327Z,99431.31
2022-12-25T17:45:56.169Z,99431.84
2022-12-25T17:48:23.042Z,99425.31
2022-12-25T17:50:49.919Z,99418.34
2022-12-25T17:53:16.823Z,99425.06
2022-12-25T17:55:44.399Z,99417.25
2022-12-25T17:58:11.289Z,99412.38
2022-12-25T18:00:38.143Z,99402.94
2022-12-25T18:03:11.237Z,99393.50
2022-12-25T18:05:38.860Z,99353.00
2022-12-25T18:08:05.733Z,99382.97
2022-12-25T18:10:37.875Z,99348.63
2022-12-25T18:13:04.920Z,99378.34
2022-12-25T18:15:31.770Z,99372.38
2022-12-25T18:17:58.738Z,99360.00
2022-12-25T18:20:25.659Z,99341.84
2022-12-25T18:22:52.493Z,99374.22
2022-12-25T18:25:19.319Z,99375.59
2022-12-25T18:27:46.222Z,99370.72
2022-12-25T18:30:13.293Z,99368.00
2022-12-25T18:32:40.138Z,99372.31
2022-12-25T18:35:08.652Z,99377.09
2022-12-25T18:37:40.054Z,99338.75
2022-12-25T18:40:08.024Z,99374.09
2022-12-25T18:42:40.538Z,99391.16
2022-12-25T18:45:08.849Z,99383.41
2022-12-25T18:47:35.834Z,99387.72
2022-12-25T18:50:02.842Z,99376.38
2022-12-25T18:52:49.868Z,99375.97
2022-12-25T18:55:16.660Z,99387.50
2022-12-25T18:57:43.515Z,99379.38
2022-12-25T19:00:10.751Z,99343.47
2022-12-25T19:02:37.755Z,99369.94
2022-12-25T19:05:05.721Z,99362.69
2022-12-25T19:07:32.563Z,99373.69
2022-12-25T19:09:59.479Z,99363.47
2022-12-25T19:12:26.308Z,99363.72
2022-12-25T19:14:53.303Z,99360.75
2022-12-25T19:17:20.169Z,99362.34
2022-12-25T19:19:47.222Z,99343.81
2022-12-25T19:22:14.148Z,99344.63
2022-12-25T19:24:41.042Z,99353.25
2022-12-25T19:27:07.901Z,99345.97
2022-12-25T19:29:34.738Z,99340.31
2022-12-25T19:32:01.739Z,99293.38
2022-12-25T19:34:28.656Z,99330.88
2022-12-25T19:36:55.501Z,99335.69
2022-12-25T19:39:22.529Z,99341.06
2022-12-25T19:41:49.396Z,99338.09
2022-12-25T19:44:16.253Z,99330.03
2022-12-25T19:46:43.223Z,99327.63
2022-12-25T19:49:12.887Z,99325.41
2022-12-25T19:51:42.227Z,99294.31
2022-12-25T19:54:14.770Z,99298.91
2022-12-25T19:56:41.721Z,99293.53
2022-12-25T19:59:08.597Z,99321.41
2022-12-25T20:01:35.703Z,99306.31
2022-12-25T20:04:02.568Z,99298.53
2022-12-25T20:06:31.169Z,99288.53
2022-12-25T20:09:02.805Z,99296.06
2022-12-25T20:11:30.325Z,99271.22
2022-12-25T20:13:57.221Z,99274.53
2022-12-25T20:16:24.996Z,99259.47
2022-12-25T20:18:52.040Z,99256.19
2022-12-25T20:21:20.667Z,99248.13
2022-12-25T20:23:48.672Z,99248.97
2022-12-25T20:26:16.328Z,99258.06
2022-12-25T20:28:43.541Z,99266.94
2022-12-25T20:31:21.307Z,99270.66
2022-12-25T20:33:49.529Z,99269.53
2022-12-25T20:36:17.402Z,99265.25
2022-12-25T20:38:44.415Z,99269.00
2022-12-25T20:41:29.533Z,99275.41
2022-12-25T20:43:56.923Z,99271.38
2022-12-25T20:46:24.762Z,99260.91
2022-12-25T20:48:52.871Z,99255.25
2022-12-25T20:51:24.158Z,99248.53
2022-12-25T20:53:51.240Z,99240.47
2022-12-25T20:56:19.456Z,99240.72
2022-12-25T20:58:46.417Z,99243.66
2022-12-25T21:01:15.683Z,99248.50
2022-12-25T21:03:42.716Z,99215.53
2022-12-25T21:06:11.253Z,99231.81
2022-12-25T21:08:38.425Z,99223.50
2022-12-25T21:11:05.554Z,99222.94
2022-12-25T21:13:36.106Z,99222.13
2022-12-25T21:16:07.329Z,99204.75
2022-12-25T21:18:34.402Z,99228.53
2022-12-25T21:21:05.561Z,99212.63
2022-12-25T21:23:36.300Z,99219.94
2022-12-25T21:26:21.670Z,99209.44
2022-12-25T21:28:49.122Z,99213.75
2022-12-25T21:31:16.143Z,99217.25
2022-12-25T21:33:52.387Z,99225.28
2022-12-25T21:36:29.619Z,99230.66
2022-12-25T21:39:03.657Z,99235.25
2022-12-25T21:41:30.807Z,99237.38
2022-12-25T21:43:57.788Z,99246.50
2022-12-25T21:46:25.004Z,99221.66
2022-12-25T21:48:52.054Z,99235.19
2022-12-25T21:51:42.578Z,99235.25
2022-12-25T21:54:09.661Z,99185.53
2022-12-25T21:56:43.396Z,99233.03
2022-12-25T21:59:13.644Z,99231.66
2022-12-25T22:01:40.597Z,99221.13
2022-12-25T22:04:09.539Z,99223.31
2022-12-25T22:06:55.055Z,99209.06
2022-12-25T22:09:22.095Z,99220.63
2022-12-25T22:12:07.600Z,99205.03
2022-12-25T22:14:56.256Z,99201.25
2022-12-25T22:17:46.527Z,99192.63
2022-12-25T22:20:36.060Z,99185.53
2022-12-25T22:23:03.155Z,99157.66
2022-12-25T22:25:30.180Z,99203.47
2022-12-25T22:27:57.233Z,99211.53
2022-12-25T22:30:28.266Z,99201.06
2022-12-25T22:32:55.173Z,99199.69
2022-12-25T22:35:22.227Z,99185.16
2022-12-25T22:37:49.886Z,99193.97
2022-12-25T22:40:17.555Z,99189.94
2022-12-25T22:42:44.487Z,99196.91
2022-12-25T22:45:11.719Z,99207.91
2022-12-25T22:47:38.590Z,99202.78
2022-12-25T22:50:05.940Z,99192.56
2022-12-25T22:52:32.853Z,99168.66
2022-12-25T22:54:59.769Z,99161.13
2022-12-25T22:57:26.672Z,99149.03
2022-12-25T22:59:53.599Z,99144.06
2022-12-25T23:02:20.830Z,99136.53
2022-12-25T23:04:48.465Z,99157.28
2022-12-25T23:07:15.767Z,99172.03
2022-12-25T23:09:43.296Z,99130.50
2022-12-25T23:12:33.327Z,99160.22
2022-12-25T23:15:00.303Z,99154.28
2022-12-25T23:17:45.841Z,99154.84
2022-12-25T23:20:32.421Z,99145.69
2022-12-25T23:23:17.848Z,99150.84
2022-12-25T23:26:03.552Z,99129.78
2022-12-25T23:28:48.985Z,99153.78
2022-12-25T23:31:15.972Z,99157.28
2022-12-25T23:33:42.834Z,99162.91
2022-12-25T23:36:09.809Z,99159.41
2022-12-25T23:38:36.643Z,99167.47
2022-12-25T23:41:03.507Z,99163.69
2022-12-25T23:43:30.511Z,99159.97
2022-12-25T23:45:57.354Z,99163.19
2022-12-25T23:48:24.229Z,99164.28
2022-12-25T23:50:51.172Z,99151.16
2022-12-25T23:53:17.994Z,99143.09
2022-12-25T23:55:48.675Z,99148.16
2022-12-25T23:58:18.541Z,99149.47
